Time,TemperatureF,DewpointF,PressureIn,WindDirection,WindDirectionDegrees,WindSpeedMPH,WindSpeedGustMPH,Humidity,HourlyPrecipIn,Conditions,Clouds,dailyrainin,SoftwareType,DateUTC
2013-09-19 20:20:00,57.6,50.4,29.94,NNW,334,2.0,5.0,77,0.00,,,0.12,Wunderground v.1.15,2013-09-20 01:20:00,
2013-09-19 20:30:00,57.4,50.6,29.95,NNW,336,2.0,2.0,78,0.00,,,0.12,Wunderground v.1.15,2013-09-20 01:30:00,
2013-09-19 20:40:00,57.1,50.3,29.95,NW,313,2.0,5.0,78,0.00,,,0.12,Wunderground v.1.15,2013-09-20 01:40:00,
2013-09-19 20:50:00,56.8,50.0,29.95,NNW,335,2.0,2.0,78,0.00,,,0.12,Wunderground v.1.15,2013-09-20 01:50:00,
2013-09-19 21:00:00,56.2,49.4,29.95,NNW,337,2.0,2.0,78,0.00,,,0.12,Wunderground v.1.15,2013-09-20 02:00:00,
2013-09-19 21:05:00,55.9,49.1,29.95,NNW,337,1.0,5.0,78,0.00,,,0.12,Wunderground v.1.15,2013-09-20 02:05:00,
2013-09-19 21:10:00,55.7,48.9,29.95,NNW,329,1.0,5.0,78,0.00,,,0.12,Wunderground v.1.15,2013-09-20 02:10:00,
2013-09-19 21:20:00,55.3,48.9,29.96,NNW,329,1.0,1.0,79,0.00,,,0.12,Wunderground v.1.15,2013-09-20 02:20:00,
2013-09-19 21:30:00,54.8,48.4,29.97,NNW,333,1.0,1.0,79,0.00,,,0.12,Wunderground v.1.15,2013-09-20 02:30:00,
2013-09-19 21:40:00,54.4,48.0,29.98,NNW,329,0.0,5.0,79,0.00,,,0.12,Wunderground v.1.15,2013-09-20 02:40:00,
2013-09-19 21:45:00,54.2,47.8,29.98,North,351,1.0,5.0,79,0.00,,,0.12,Wunderground v.1.15,2013-09-20 02:45:00,
2013-09-19 21:50:00,54.2,47.8,29.98,NW,312,1.0,5.0,79,0.00,,,0.12,Wunderground v.1.15,2013-09-20 02:50:00,
2013-09-19 22:00:00,53.9,47.9,29.98,NW,319,2.0,5.0,80,0.00,,,0.12,Wunderground v.1.15,2013-09-20 03:00:00,
2013-09-19 22:10:00,53.8,47.8,29.99,NNW,339,1.0,5.0,80,0.00,,,0.12,Wunderground v.1.15,2013-09-20 03:10:00,
2013-09-19 22:20:00,53.5,47.5,29.99,WNW,301,1.0,1.0,80,0.00,,,0.12,Wunderground v.1.15,2013-09-20 03:20:00,
2013-09-19 22:30:00,53.3,47.3,30.00,NNW,340,1.0,5.0,80,0.00,,,0.12,Wunderground v.1.15,2013-09-20 03:30:00,
2013-09-19 22:40:00,53.2,47.5,30.01,NW,313,2.0,2.0,81,0.00,,,0.12,Wunderground v.1.15,2013-09-20 03:40:00,
2013-09-19 22:45:00,53.2,47.5,30.01,NW,309,3.0,3.0,81,0.00,,,0.12,Wunderground v.1.15,2013-09-20 03:45:00,
2013-09-19 22:55:00,53.2,47.5,30.02,NW,309,2.0,5.0,81,0.00,,,0.12,Wunderground v.1.15,2013-09-20 03:55:00,
2013-09-19 23:05:00,53.6,47.6,30.02,North,9,3.0,5.0,80,0.00,,,0.12,Wunderground v.1.15,2013-09-20 04:05:00,
2013-09-19 23:10:00,53.7,47.7,30.03,North,350,4.0,5.0,80,0.00,,,0.12,Wunderground v.1.15,2013-09-20 04:10:00,
2013-09-19 23:15:00,53.8,47.4,30.03,NNW,346,4.0,5.0,79,0.00,,,0.12,Wunderground v.1.15,2013-09-20 04:15:00,
2013-09-19 23:20:00,53.7,47.3,30.03,NNW,331,3.0,5.0,79,0.00,,,0.12,Wunderground v.1.15,2013-09-20 04:20:00,
2013-09-19 23:30:00,53.5,47.1,30.03,NNW,339,3.0,5.0,79,0.00,,,0.12,Wunderground v.1.15,2013-09-20 04:30:00,
2013-09-19 23:45:00,52.8,46.8,30.03,WNW,301,2.0,5.0,80,0.00,,,0.12,Wunderground v.1.15,2013-09-20 04:45:00,
2013-09-19 23:50:00,52.6,46.6,30.03,NW,319,2.0,5.0,80,0.00,,,0.12,Wunderground v.1.15,2013-09-20 04:50:00,